Centerfield, UT

2:22 AM MST on December 25, 2014 (GMT -0700)
MesoWest Flowell UT US | Change Station
CLOSE
Current Station
Personal Weather Station
Location: Aurora, UT
Elevation: 4734 ft
Nearby Weather Stations
Active Advisory: Winter Storm Warning Active Notice: Public Information Statement

Elev 4734 ft 38.96 °N, 112.00 °W | Updated 37 minutes ago

Overcast
Overcast
38 °F
Feels Like 27 °F
N
22
Wind Variable Wind from WSW
Gusts 34.0 mph

Today
High -- | Low -- °F
--% Chance of Precip.
Yesterday
High -- | Low -- °F
Precip. -- in
7:44 AM 5:10 PM
Waxing Crescent, 15% visible
Pressure 29.65 in
Visibility 10.0 miles
Clouds Overcast 5000 ft
Windchill 27 °F
Dew Point 24 °F
Humidity 57%
Rainfall -999.00 in
Snow Depth Not available.
UV 0 out of 12
Pollen .10 out of 12
Air Quality Not available.
Flu Activity Not available.
METAR KPUC 250853Z AUTO 27003KT 10SM OVC050 M03/M08 A2955 RMK AO2 SLP040 T10331083 56032

More Conditions Fewer Conditions

Pressure 29.65 in
Visibility 10.0 miles
Clouds Overcast 5000 ft
Windchill 27 °F
Dew Point 24 °F
Humidity 57%
Rainfall -999.00 in
Snow Depth Not available.
UV 0 out of 12
Pollen .10 out of 12
Air Quality Not available.
Flu Activity Not available.
METAR KPUC 250853Z AUTO 27003KT 10SM OVC050 M03/M08 A2955 RMK AO2 SLP040 T10331083 56032

More Conditions Fewer Conditions

10-Day Weather Forecast

Almanac

Astronomy

Dec. 25, 2014 Rise Set
Actual Time
Civil Twilight
Nautical Twilight
Astronomical Twilight
Moon
Length of Visible Light
Length of Day
Tomorrow will be .
, % of the Moon is Illuminated

Today's Extremes

State Highs State Lows

Community

WunderPhotos

Upload Photos

1,780,252 photos uploaded!

WunderBlogs® & News

Nearby

Air Quality

  Air Quality AQ Index Pollutant
Not available.

Snow Depth

Station Depth Elevation

Earthquake Activity

City Distance Mag. Time & Date
Minimum magnitude displayed is 2.5.

Coastal Water Temperatures

Place Temperature

Nearby Weather Stations